createdAt,value
2022-09-30T00:01:33.938Z,17.05
2022-09-30T00:04:01.163Z,17.98
2022-09-30T00:06:29.672Z,16.92
2022-09-30T00:08:57.801Z,17.15
2022-09-30T00:11:27.249Z,17.20
2022-09-30T00:13:53.746Z,17.83
2022-09-30T00:16:22.607Z,17.75
2022-09-30T00:18:50.131Z,17.55
2022-09-30T00:21:17.657Z,15.85
2022-09-30T00:23:45.149Z,18.38
2022-09-30T00:26:15.291Z,17.15
2022-09-30T00:28:43.886Z,16.70
2022-09-30T00:31:16.076Z,16.80
2022-09-30T00:33:43.363Z,16.42
2022-09-30T00:36:11.248Z,16.67
2022-09-30T00:38:37.719Z,17.05
2022-09-30T00:41:04.473Z,16.95
2022-09-30T00:43:53.279Z,17.13
2022-09-30T00:46:44.878Z,16.45
2022-09-30T00:49:19.007Z,16.25
2022-09-30T00:51:50.484Z,17.10
2022-09-30T00:54:21.840Z,16.50
2022-09-30T00:56:56.700Z,16.65
2022-09-30T00:59:27.215Z,17.17
2022-09-30T01:01:54.302Z,16.83
2022-09-30T01:04:26.073Z,17.20
2022-09-30T01:06:52.903Z,15.95
2022-09-30T01:09:20.166Z,17.83
2022-09-30T01:11:48.017Z,17.23
2022-09-30T01:14:21.447Z,17.17
2022-09-30T01:16:59.220Z,16.83
2022-09-30T01:19:28.659Z,16.20
2022-09-30T01:22:13.528Z,16.08
2022-09-30T01:25:01.407Z,15.33
2022-09-30T01:27:40.651Z,15.80
2022-09-30T01:30:22.532Z,17.27
2022-09-30T01:33:00.947Z,17.02
2022-09-30T01:35:57.174Z,15.73
2022-09-30T01:38:28.590Z,15.45
2022-09-30T01:41:05.735Z,16.10
2022-09-30T01:44:17.658Z,16.70
2022-09-30T01:46:51.751Z,15.88
2022-09-30T01:49:47.410Z,15.88
2022-09-30T01:52:19.792Z,15.15
2022-09-30T01:55:06.858Z,15.95
2022-09-30T01:57:44.976Z,16.00
2022-09-30T02:00:13.141Z,15.85
2022-09-30T02:02:58.232Z,15.65
2022-09-30T02:05:30.790Z,14.82
2022-09-30T02:08:26.431Z,15.77
2022-09-30T02:10:59.074Z,14.68
2022-09-30T02:13:39.975Z,15.02
2022-09-30T02:16:13.443Z,15.98
2022-09-30T02:18:54.125Z,16.10
2022-09-30T02:21:26.187Z,15.15
2022-09-30T02:23:59.471Z,16.88
2022-09-30T02:26:30.142Z,15.60
2022-09-30T02:29:06.388Z,14.85
2022-09-30T02:31:37.828Z,14.38
2022-09-30T02:34:08.657Z,14.00
2022-09-30T02:36:40.770Z,14.23
2022-09-30T02:39:16.250Z,14.77
2022-09-30T02:41:52.013Z,14.70
2022-09-30T02:44:19.646Z,15.50
2022-09-30T02:47:16.217Z,13.98
2022-09-30T02:49:56.872Z,13.80
2022-09-30T02:52:40.405Z,13.55
2022-09-30T02:55:14.540Z,14.00
2022-09-30T02:57:46.734Z,13.68
2022-09-30T03:00:13.864Z,13.57
2022-09-30T03:02:41.447Z,14.48
2022-09-30T03:05:09.611Z,14.00
2022-09-30T03:07:36.687Z,12.10
2022-09-30T03:10:12.816Z,13.30
2022-09-30T03:13:05.066Z,13.80
2022-09-30T03:15:59.360Z,13.60
2022-09-30T03:18:48.001Z,19.85
2022-09-30T03:21:36.523Z,13.32
2022-09-30T03:24:27.478Z,12.95
2022-09-30T03:27:18.861Z,13.23
2022-09-30T03:29:57.961Z,14.48
2022-09-30T03:32:33.365Z,12.50
2022-09-30T03:35:03.926Z,13.35
2022-09-30T03:37:45.412Z,13.35
2022-09-30T03:40:27.630Z,13.48
2022-09-30T03:43:22.999Z,12.30
2022-09-30T03:46:02.165Z,13.68
2022-09-30T03:48:31.905Z,12.98
2022-09-30T03:51:00.068Z,13.02
2022-09-30T03:53:28.500Z,12.68
2022-09-30T03:55:55.104Z,12.60
2022-09-30T03:58:23.509Z,14.07
2022-09-30T04:00:52.987Z,13.07
2022-09-30T04:03:21.815Z,12.73
2022-09-30T04:05:49.031Z,13.23
2022-09-30T04:08:16.179Z,13.50
2022-09-30T04:10:46.275Z,13.25
2022-09-30T04:13:12.944Z,12.77
2022-09-30T04:15:40.544Z,13.10
2022-09-30T04:18:07.496Z,12.40
2022-09-30T04:20:33.951Z,12.77
2022-09-30T04:23:01.509Z,11.52
2022-09-30T04:25:28.696Z,14.77
2022-09-30T04:27:55.822Z,15.25
2022-09-30T04:30:25.566Z,12.85
2022-09-30T04:32:53.811Z,13.57
2022-09-30T04:35:20.430Z,13.57
2022-09-30T04:37:47.999Z,13.75
2022-09-30T04:40:16.316Z,13.95
2022-09-30T04:42:43.046Z,13.10
2022-09-30T04:45:11.480Z,12.00
2022-09-30T04:47:37.898Z,17.05
2022-09-30T04:50:05.604Z,16.15
2022-09-30T04:52:32.032Z,14.18
2022-09-30T04:54:58.730Z,14.98
2022-09-30T04:57:25.439Z,12.52
2022-09-30T04:59:51.933Z,14.80
2022-09-30T05:02:18.421Z,18.50
2022-09-30T05:04:45.015Z,18.38
2022-09-30T05:07:11.663Z,14.93
2022-09-30T05:09:38.191Z,14.68
2022-09-30T05:12:04.740Z,16.60
2022-09-30T05:14:31.247Z,13.30
2022-09-30T05:16:57.702Z,12.57
2022-09-30T05:19:24.395Z,12.75
2022-09-30T05:21:52.044Z,12.70
2022-09-30T05:24:18.705Z,13.45
2022-09-30T05:26:45.171Z,13.98
2022-09-30T05:29:11.678Z,13.80
2022-09-30T05:31:38.223Z,13.60
2022-09-30T05:34:04.792Z,13.07
2022-09-30T05:36:31.204Z,12.63
2022-09-30T05:38:57.627Z,15.35
2022-09-30T05:41:24.452Z,12.80
2022-09-30T05:43:51.188Z,13.57
2022-09-30T05:46:19.372Z,13.52
2022-09-30T05:48:46.842Z,13.73
2022-09-30T05:51:13.789Z,13.70
2022-09-30T05:53:41.197Z,15.52
2022-09-30T05:56:09.243Z,16.15
2022-09-30T05:58:37.691Z,16.70
2022-09-30T06:01:13.211Z,16.60
2022-09-30T06:03:41.183Z,17.40
2022-09-30T06:06:07.837Z,17.98
2022-09-30T06:08:34.689Z,17.20
2022-09-30T06:11:01.206Z,16.63
2022-09-30T06:13:28.461Z,17.83
2022-09-30T06:15:59.386Z,16.40
2022-09-30T06:18:27.443Z,16.98
2022-09-30T06:21:02.011Z,14.57
2022-09-30T06:23:32.684Z,14.90
2022-09-30T06:25:59.122Z,15.18
2022-09-30T06:28:25.884Z,15.88
2022-09-30T06:30:52.283Z,15.30
2022-09-30T06:33:18.854Z,14.70
2022-09-30T06:35:47.365Z,16.05
2022-09-30T06:38:17.308Z,15.68
2022-09-30T06:40:44.810Z,16.08
2022-09-30T06:43:11.575Z,16.85
2022-09-30T06:45:38.415Z,16.92
2022-09-30T06:48:08.721Z,15.43
2022-09-30T06:50:36.032Z,16.25
2022-09-30T06:53:08.320Z,17.65
2022-09-30T06:55:39.259Z,16.20
2022-09-30T06:58:14.556Z,17.17
2022-09-30T07:03:15.728Z,17.13
2022-09-30T07:05:42.136Z,16.77
2022-09-30T07:08:10.582Z,19.02
2022-09-30T07:10:38.140Z,17.45
2022-09-30T07:13:04.601Z,18.10
2022-09-30T07:15:31.110Z,17.73
2022-09-30T07:17:57.611Z,21.67
2022-09-30T07:20:24.645Z,19.73
2022-09-30T07:22:51.255Z,20.52
2022-09-30T07:25:18.024Z,15.18
2022-09-30T07:27:44.920Z,16.05
2022-09-30T07:30:18.111Z,18.10
2022-09-30T07:32:50.092Z,14.95
2022-09-30T07:35:16.660Z,17.67
2022-09-30T07:37:43.107Z,20.40
2022-09-30T07:40:10.030Z,17.75
2022-09-30T07:42:45.363Z,16.95
2022-09-30T07:45:19.212Z,18.05
2022-09-30T07:47:49.656Z,18.73
2022-09-30T07:50:19.137Z,6.82
2022-09-30T07:52:45.689Z,11.60
2022-09-30T07:55:12.170Z,20.77
2022-09-30T07:57:38.573Z,14.50
2022-09-30T08:00:29.761Z,17.75
2022-09-30T08:02:53.343Z,18.08
2022-09-30T08:05:19.756Z,18.85
2022-09-30T08:07:46.216Z,18.35
2022-09-30T08:10:12.749Z,15.45
2022-09-30T08:12:39.173Z,10.38
2022-09-30T08:15:09.557Z,8.38
2022-09-30T08:17:36.011Z,19.52
2022-09-30T08:20:02.481Z,18.23
2022-09-30T08:22:28.896Z,18.35
2022-09-30T08:24:55.331Z,3.53
2022-09-30T08:27:21.831Z,18.10
2022-09-30T08:29:59.119Z,8.75
2022-09-30T08:32:30.587Z,10.57
2022-09-30T08:34:57.024Z,9.55
2022-09-30T08:37:24.114Z,6.82
2022-09-30T08:39:50.625Z,8.13
2022-09-30T08:42:42.470Z,9.75
2022-09-30T08:45:35.907Z,17.13
2022-09-30T08:48:08.919Z,8.20
2022-09-30T08:50:46.863Z,16.35
2022-09-30T08:53:24.197Z,17.10
2022-09-30T08:55:54.505Z,14.30
2022-09-30T08:58:28.515Z,6.85
2022-09-30T09:00:59.333Z,9.05
2022-09-30T09:03:29.779Z,7.90
2022-09-30T09:05:56.607Z,6.25
2022-09-30T09:08:26.076Z,14.55
2022-09-30T09:11:07.329Z,14.60
2022-09-30T09:14:00.716Z,12.45
2022-09-30T09:16:30.174Z,7.95
2022-09-30T09:19:05.674Z,15.30
2022-09-30T09:21:44.176Z,8.35
2022-09-30T09:24:21.109Z,5.25
2022-09-30T09:26:49.018Z,7.80
2022-09-30T09:29:48.168Z,5.65
2022-09-30T09:32:17.716Z,5.70
2022-09-30T09:34:50.572Z,10.60
2022-09-30T09:38:03.167Z,10.90
2022-09-30T09:41:23.822Z,4.63
2022-09-30T09:43:55.745Z,7.82
2022-09-30T09:46:29.516Z,9.85
2022-09-30T09:49:28.300Z,4.45
2022-09-30T09:52:11.619Z,8.93
2022-09-30T09:54:51.292Z,8.52
2022-09-30T09:57:24.768Z,9.48
2022-09-30T10:00:25.167Z,9.68
2022-09-30T10:03:01.996Z,4.10
2022-09-30T10:05:30.240Z,6.75
2022-09-30T10:08:22.947Z,3.53
2022-09-30T10:11:20.586Z,6.78
2022-09-30T10:13:47.337Z,3.15
2022-09-30T10:16:25.815Z,4.05
2022-09-30T10:18:52.464Z,4.20
2022-09-30T10:21:24.581Z,4.30
2022-09-30T10:23:51.146Z,4.53
2022-09-30T10:26:24.207Z,7.85
2022-09-30T10:28:56.452Z,2.53
2022-09-30T10:31:36.420Z,7.78
2022-09-30T10:34:14.743Z,6.57
2022-09-30T10:36:43.398Z,3.97
2022-09-30T10:39:26.755Z,5.43
2022-09-30T10:42:08.542Z,6.70
2022-09-30T10:44:46.935Z,6.10
2022-09-30T10:47:18.180Z,8.20
2022-09-30T10:49:59.771Z,3.35
2022-09-30T10:52:32.404Z,3.95
2022-09-30T10:55:09.083Z,4.15
2022-09-30T10:57:40.332Z,7.60
2022-09-30T11:00:14.778Z,8.50
2022-09-30T11:02:53.170Z,6.07
2022-09-30T11:05:33.711Z,4.07
2022-09-30T11:08:18.420Z,4.03
2022-09-30T11:11:07.212Z,5.43
2022-09-30T11:13:57.377Z,6.45
2022-09-30T11:16:36.088Z,6.68
2022-09-30T11:19:05.579Z,4.50
2022-09-30T11:21:54.033Z,4.18
2022-09-30T11:24:38.310Z,3.80
2022-09-30T11:27:04.705Z,3.35
2022-09-30T11:29:53.501Z,5.97
2022-09-30T11:32:36.365Z,3.22
2022-09-30T11:35:22.997Z,3.05
2022-09-30T11:38:02.150Z,5.45
2022-09-30T11:41:03.748Z,5.85
2022-09-30T11:43:41.982Z,6.25
2022-09-30T11:46:25.735Z,3.13
2022-09-30T11:49:11.255Z,5.30
2022-09-30T11:52:03.374Z,3.38
2022-09-30T11:54:38.679Z,4.55
2022-09-30T11:59:54.414Z,2.85
2022-09-30T12:02:40.447Z,2.63
2022-09-30T12:05:28.612Z,5.78
2022-09-30T12:08:03.408Z,4.32
2022-09-30T12:10:36.058Z,2.80
2022-09-30T12:13:18.808Z,3.10
2022-09-30T12:15:47.212Z,2.85
2022-09-30T12:18:19.132Z,3.83
2022-09-30T12:20:55.515Z,1.77
2022-09-30T12:23:32.599Z,4.05
2022-09-30T12:26:03.761Z,2.90
2022-09-30T12:28:51.895Z,2.10
2022-09-30T12:31:21.115Z,3.28
2022-09-30T12:34:31.171Z,3.08
2022-09-30T12:37:20.839Z,4.05
2022-09-30T12:40:03.774Z,3.88
2022-09-30T12:42:59.414Z,1.77
2022-09-30T12:45:29.598Z,4.80
2022-09-30T12:47:58.640Z,4.43
2022-09-30T12:50:34.278Z,1.88
2022-09-30T12:53:16.143Z,4.72
2022-09-30T12:55:42.994Z,4.88
2022-09-30T12:58:28.511Z,3.90
2022-09-30T13:01:08.325Z,2.05
2022-09-30T13:03:59.225Z,4.90
2022-09-30T13:06:44.936Z,2.58
2022-09-30T13:09:11.383Z,2.40
2022-09-30T13:11:40.989Z,4.80
2022-09-30T13:14:43.478Z,4.65
2022-09-30T13:17:13.203Z,1.60
2022-09-30T13:19:45.698Z,2.53
2022-09-30T13:22:18.135Z,4.68
2022-09-30T13:25:12.137Z,2.42
2022-09-30T13:27:41.565Z,5.20
2022-09-30T13:30:17.122Z,4.70
2022-09-30T13:32:50.771Z,2.28
2022-09-30T13:35:37.504Z,3.70
2022-09-30T13:38:16.105Z,5.40
2022-09-30T13:41:05.506Z,1.42
2022-09-30T13:43:38.215Z,3.45
2022-09-30T13:46:17.969Z,2.35
2022-09-30T13:49:00.587Z,4.35
2022-09-30T13:51:32.819Z,2.22
2022-09-30T13:54:08.446Z,3.50
2022-09-30T13:56:39.969Z,4.53
2022-09-30T13:59:43.933Z,4.57
2022-09-30T14:02:33.735Z,3.35
2022-09-30T14:05:35.101Z,3.53
2022-09-30T14:08:24.609Z,4.68
2022-09-30T14:11:36.129Z,3.90
2022-09-30T14:14:24.820Z,5.57
2022-09-30T14:17:25.211Z,4.75
2022-09-30T14:19:58.311Z,5.18
2022-09-30T14:22:30.088Z,4.85
2022-09-30T14:24:57.743Z,2.85
2022-09-30T14:27:29.927Z,3.53
2022-09-30T14:30:05.718Z,3.00
2022-09-30T14:33:06.636Z,3.33
2022-09-30T14:35:35.704Z,3.83
2022-09-30T14:38:07.141Z,4.20
2022-09-30T14:40:36.803Z,4.90
2022-09-30T14:43:06.630Z,2.58
2022-09-30T14:45:37.668Z,4.13
2022-09-30T14:48:22.889Z,2.03
2022-09-30T14:51:05.644Z,3.05
2022-09-30T14:53:35.001Z,2.47
2022-09-30T14:56:04.941Z,3.08
2022-09-30T14:58:39.911Z,3.35
2022-09-30T15:01:20.998Z,5.45
2022-09-30T15:03:53.382Z,3.97
2022-09-30T15:06:23.309Z,4.65
2022-09-30T15:08:51.342Z,3.40
2022-09-30T15:11:28.104Z,2.47
2022-09-30T15:14:07.475Z,2.80
2022-09-30T15:16:34.558Z,2.10
2022-09-30T15:19:01.438Z,2.55
2022-09-30T15:21:31.321Z,4.88
2022-09-30T15:24:00.669Z,4.15
2022-09-30T15:26:27.758Z,4.78
2022-09-30T15:28:54.801Z,4.20
2022-09-30T15:31:28.461Z,3.95
2022-09-30T15:34:21.890Z,4.47
2022-09-30T15:37:00.342Z,2.45
2022-09-30T15:39:48.418Z,4.10
2022-09-30T15:42:30.342Z,1.40
2022-09-30T15:44:59.308Z,3.92
2022-09-30T15:47:27.530Z,4.00
2022-09-30T15:49:55.338Z,3.60
2022-09-30T15:52:29.340Z,3.13
2022-09-30T15:54:57.093Z,4.53
2022-09-30T15:57:47.291Z,4.18
2022-09-30T16:00:35.328Z,4.35
2022-09-30T16:03:17.104Z,5.00
2022-09-30T16:05:44.905Z,2.05
2022-09-30T16:08:23.047Z,3.60
2022-09-30T16:10:56.094Z,3.08
2022-09-30T16:13:25.626Z,3.35
2022-09-30T16:15:57.561Z,2.97
2022-09-30T16:18:31.312Z,4.47
2022-09-30T16:21:03.271Z,3.72
2022-09-30T16:23:38.281Z,4.57
2022-09-30T16:26:28.747Z,3.60
2022-09-30T16:28:56.300Z,3.13
2022-09-30T16:31:24.205Z,4.10
2022-09-30T16:33:50.822Z,2.88
2022-09-30T16:36:17.350Z,2.00
2022-09-30T16:38:43.837Z,4.15
2022-09-30T16:41:13.021Z,1.15
2022-09-30T16:43:40.144Z,4.28
2022-09-30T16:46:07.151Z,3.33
2022-09-30T16:48:35.016Z,4.00
2022-09-30T16:51:16.871Z,4.18
2022-09-30T16:53:43.968Z,3.90
2022-09-30T16:56:15.376Z,3.67
2022-09-30T16:58:42.843Z,4.43
2022-09-30T17:01:18.752Z,4.40
2022-09-30T17:03:46.419Z,4.68
2022-09-30T17:06:14.423Z,4.47
2022-09-30T17:08:41.379Z,3.95
2022-09-30T17:11:07.848Z,1.17
2022-09-30T17:13:35.584Z,4.35
2022-09-30T17:16:02.103Z,4.15
2022-09-30T17:18:28.571Z,5.15
2022-09-30T17:20:55.873Z,3.72
2022-09-30T17:23:24.181Z,4.65
2022-09-30T17:25:51.975Z,3.53
2022-09-30T17:28:18.509Z,3.58
2022-09-30T17:30:47.909Z,3.88
2022-09-30T17:33:15.266Z,7.32
2022-09-30T17:35:41.744Z,9.27
2022-09-30T17:38:12.706Z,7.95
2022-09-30T17:40:58.767Z,6.47
2022-09-30T17:43:25.229Z,4.25
2022-09-30T17:45:52.387Z,4.47
2022-09-30T17:48:18.959Z,4.25
2022-09-30T17:50:48.483Z,5.05
2022-09-30T17:53:19.396Z,5.60
2022-09-30T17:55:47.967Z,5.80
2022-09-30T17:58:19.183Z,5.95
2022-09-30T18:00:46.800Z,5.70
2022-09-30T18:03:13.508Z,5.55
2022-09-30T18:05:40.041Z,5.22
2022-09-30T18:08:06.606Z,6.88
2022-09-30T18:10:37.109Z,5.85
2022-09-30T18:13:03.662Z,5.28
2022-09-30T18:15:30.165Z,8.40
2022-09-30T18:17:56.961Z,4.88
2022-09-30T18:20:25.541Z,5.32
2022-09-30T18:22:52.336Z,5.20
2022-09-30T18:25:22.592Z,5.13
2022-09-30T18:27:59.190Z,7.10
2022-09-30T18:30:26.797Z,6.18
2022-09-30T18:32:54.424Z,6.05
2022-09-30T18:35:24.498Z,5.95
2022-09-30T18:37:53.073Z,6.22
2022-09-30T18:40:22.566Z,4.95
2022-09-30T18:42:56.249Z,6.22
2022-09-30T18:45:23.973Z,5.93
2022-09-30T18:47:55.341Z,6.68
2022-09-30T18:50:23.164Z,5.57
2022-09-30T18:52:51.247Z,6.65
2022-09-30T18:55:18.310Z,6.70
2022-09-30T18:57:48.264Z,6.85
2022-09-30T19:00:16.795Z,7.05
2022-09-30T19:02:44.692Z,10.43
2022-09-30T19:05:12.887Z,8.02
2022-09-30T19:07:39.400Z,8.05
2022-09-30T19:10:10.204Z,7.72
2022-09-30T19:12:37.982Z,7.97
2022-09-30T19:15:06.931Z,7.43
2022-09-30T19:17:33.699Z,7.38
2022-09-30T19:20:00.747Z,5.72
2022-09-30T19:22:28.323Z,6.70
2022-09-30T19:24:54.977Z,6.80
2022-09-30T19:27:26.238Z,6.70
2022-09-30T19:29:58.535Z,6.40
2022-09-30T19:32:26.494Z,6.85
2022-09-30T19:35:05.441Z,6.80
2022-09-30T19:37:33.072Z,6.38
2022-09-30T19:40:08.445Z,6.85
2022-09-30T19:42:42.639Z,8.00
2022-09-30T19:45:09.217Z,8.68
2022-09-30T19:47:36.537Z,7.35
2022-09-30T19:50:04.109Z,8.40
2022-09-30T19:52:30.548Z,7.03
2022-09-30T19:55:05.394Z,8.13
2022-09-30T19:57:37.686Z,7.55
2022-09-30T20:00:05.516Z,7.55
2022-09-30T20:02:32.388Z,6.60
2022-09-30T20:05:00.474Z,7.15
2022-09-30T20:07:28.176Z,6.38
2022-09-30T20:09:54.705Z,6.70
2022-09-30T20:12:21.203Z,7.07
2022-09-30T20:15:06.431Z,7.57
2022-09-30T20:17:32.938Z,8.45
2022-09-30T20:20:18.050Z,7.18
2022-09-30T20:22:44.531Z,6.57
2022-09-30T20:25:11.204Z,6.55
2022-09-30T20:27:40.312Z,6.88
2022-09-30T20:30:07.154Z,7.22
2022-09-30T20:32:33.614Z,7.47
2022-09-30T20:35:00.120Z,7.03
2022-09-30T20:37:26.650Z,7.22
2022-09-30T20:39:53.111Z,8.15
2022-09-30T20:42:19.558Z,8.02
2022-09-30T20:44:46.069Z,7.53
2022-09-30T20:47:12.596Z,6.63
2022-09-30T20:49:39.078Z,7.05
2022-09-30T20:52:06.023Z,6.53
2022-09-30T20:54:35.384Z,5.88
2022-09-30T20:57:07.232Z,5.85
2022-09-30T20:59:33.963Z,6.07
2022-09-30T21:02:00.492Z,5.13
2022-09-30T21:04:27.018Z,4.28
2022-09-30T21:06:53.510Z,4.63
2022-09-30T21:09:19.969Z,2.60
2022-09-30T21:11:46.436Z,4.40
2022-09-30T21:14:15.877Z,2.55
2022-09-30T21:16:42.420Z,2.83
2022-09-30T21:19:10.271Z,4.03
2022-09-30T21:21:36.702Z,3.85
2022-09-30T21:24:03.241Z,4.10
2022-09-30T21:26:30.009Z,3.33
2022-09-30T21:28:56.468Z,1.98
2022-09-30T21:31:27.535Z,3.83
2022-09-30T21:33:56.522Z,1.25
2022-09-30T21:36:24.170Z,4.10
2022-09-30T21:38:51.360Z,3.33
2022-09-30T21:41:19.563Z,3.60
2022-09-30T21:43:46.996Z,3.85
2022-09-30T21:46:15.392Z,3.25
2022-09-30T21:48:42.542Z,3.47
2022-09-30T21:51:09.994Z,3.70
2022-09-30T21:53:36.941Z,4.03
2022-09-30T21:56:03.928Z,3.47
2022-09-30T21:58:31.989Z,3.38
2022-09-30T22:01:04.362Z,2.60
2022-09-30T22:03:39.416Z,1.33
2022-09-30T22:06:07.989Z,3.83
2022-09-30T22:08:39.912Z,3.60
2022-09-30T22:11:12.845Z,2.35
2022-09-30T22:13:42.093Z,3.13
2022-09-30T22:16:08.978Z,2.78
2022-09-30T22:18:36.183Z,1.63
2022-09-30T22:21:13.813Z,2.05
2022-09-30T22:23:40.821Z,2.83
2022-09-30T22:26:12.775Z,2.40
2022-09-30T22:28:39.892Z,2.03
2022-09-30T22:31:13.846Z,2.33
2022-09-30T22:33:59.328Z,3.83
2022-09-30T22:36:44.223Z,1.92
2022-09-30T22:39:11.244Z,3.47
2022-09-30T22:41:38.289Z,3.05
2022-09-30T22:44:05.156Z,3.42
2022-09-30T22:46:36.047Z,2.67
2022-09-30T22:49:03.659Z,3.70
2022-09-30T22:51:32.648Z,3.63
2022-09-30T22:54:01.012Z,2.88
2022-09-30T22:56:27.885Z,1.95
2022-09-30T22:58:54.331Z,1.75
2022-09-30T23:01:20.850Z,2.85
2022-09-30T23:03:48.457Z,3.25
2022-09-30T23:06:14.923Z,4.10
2022-09-30T23:08:41.722Z,2.65
2022-09-30T23:11:10.891Z,2.78
2022-09-30T23:13:38.307Z,3.80
2022-09-30T23:16:06.516Z,2.50
2022-09-30T23:18:34.158Z,3.78
2022-09-30T23:21:05.963Z,2.60
2022-09-30T23:23:33.897Z,2.10
2022-09-30T23:26:04.708Z,3.65
2022-09-30T23:28:32.402Z,3.30
2022-09-30T23:31:05.088Z,2.63
2022-09-30T23:33:31.519Z,2.65
2022-09-30T23:36:01.196Z,1.63
2022-09-30T23:38:28.565Z,2.13
2022-09-30T23:41:00.986Z,2.72
2022-09-30T23:43:32.345Z,2.78
2022-09-30T23:45:58.951Z,3.15
2022-09-30T23:48:25.864Z,2.35
2022-09-30T23:50:53.078Z,3.13
2022-09-30T23:53:21.748Z,2.05
2022-09-30T23:55:56.399Z,3.65
2022-09-30T23:58:24.200Z,2.97
